sensor_id;sensor_type;location;lat;lon;timestamp;P1;durP1;ratioP1;P2;durP2;ratioP2
12896;SDS011;6516;35.028;32.372;2023-08-31T00:01:10;26.00;;;18.73;;
12896;SDS011;6516;35.028;32.372;2023-08-31T00:03:39;23.43;;;18.03;;
12896;SDS011;6516;35.028;32.372;2023-08-31T00:06:06;23.55;;;19.25;;
12896;SDS011;6516;35.028;32.372;2023-08-31T00:08:36;20.15;;;17.25;;
12896;SDS011;6516;35.028;32.372;2023-08-31T00:11:04;20.38;;;16.88;;
12896;SDS011;6516;35.028;32.372;2023-08-31T00:13:31;25.23;;;19.05;;
12896;SDS011;6516;35.028;32.372;2023-08-31T00:15:59;25.73;;;18.40;;
12896;SDS011;6516;35.028;32.372;2023-08-31T00:18:27;25.45;;;19.10;;
12896;SDS011;6516;35.028;32.372;2023-08-31T00:20:55;26.83;;;18.52;;
12896;SDS011;6516;35.028;32.372;2023-08-31T00:23:25;23.92;;;19.15;;
12896;SDS011;6516;35.028;32.372;2023-08-31T00:25:55;21.35;;;18.20;;
12896;SDS011;6516;35.028;32.372;2023-08-31T00:28:22;25.67;;;19.97;;
12896;SDS011;6516;35.028;32.372;2023-08-31T00:30:51;28.98;;;20.13;;
12896;SDS011;6516;35.028;32.372;2023-08-31T00:33:19;22.85;;;19.20;;
12896;SDS011;6516;35.028;32.372;2023-08-31T00:35:47;22.65;;;19.13;;
12896;SDS011;6516;35.028;32.372;2023-08-31T00:38:15;26.25;;;20.70;;
12896;SDS011;6516;35.028;32.372;2023-08-31T00:40:43;26.03;;;20.20;;
12896;SDS011;6516;35.028;32.372;2023-08-31T00:43:13;23.58;;;19.83;;
12896;SDS011;6516;35.028;32.372;2023-08-31T00:45:43;20.60;;;18.40;;
12896;SDS011;6516;35.028;32.372;2023-08-31T00:48:12;27.63;;;20.85;;
12896;SDS011;6516;35.028;32.372;2023-08-31T00:50:43;24.98;;;19.42;;
12896;SDS011;6516;35.028;32.372;2023-08-31T00:53:12;26.03;;;20.77;;
12896;SDS011;6516;35.028;32.372;2023-08-31T00:55:40;24.02;;;19.55;;
12896;SDS011;6516;35.028;32.372;2023-08-31T00:58:08;24.35;;;20.08;;
12896;SDS011;6516;35.028;32.372;2023-08-31T01:00:40;25.33;;;19.42;;
12896;SDS011;6516;35.028;32.372;2023-08-31T01:03:18;28.25;;;20.33;;
12896;SDS011;6516;35.028;32.372;2023-08-31T01:05:55;25.57;;;19.90;;
12896;SDS011;6516;35.028;32.372;2023-08-31T01:08:35;24.13;;;19.75;;
12896;SDS011;6516;35.028;32.372;2023-08-31T01:11:12;27.63;;;21.52;;
12896;SDS011;6516;35.028;32.372;2023-08-31T01:13:50;26.20;;;20.92;;
12896;SDS011;6516;35.028;32.372;2023-08-31T01:16:23;23.33;;;19.70;;
12896;SDS011;6516;35.028;32.372;2023-08-31T01:18:52;24.40;;;20.20;;
12896;SDS011;6516;35.028;32.372;2023-08-31T01:21:22;24.70;;;19.58;;
12896;SDS011;6516;35.028;32.372;2023-08-31T01:23:58;26.70;;;20.92;;
12896;SDS011;6516;35.028;32.372;2023-08-31T01:26:26;27.33;;;21.05;;
12896;SDS011;6516;35.028;32.372;2023-08-31T01:28:54;25.50;;;21.05;;
12896;SDS011;6516;35.028;32.372;2023-08-31T01:31:22;22.20;;;19.43;;
12896;SDS011;6516;35.028;32.372;2023-08-31T01:37:03;24.05;;;20.27;;
12896;SDS011;6516;35.028;32.372;2023-08-31T01:39:42;24.95;;;19.73;;
12896;SDS011;6516;35.028;32.372;2023-08-31T01:42:15;25.70;;;20.45;;
12896;SDS011;6516;35.028;32.372;2023-08-31T01:44:43;26.33;;;20.00;;
12896;SDS011;6516;35.028;32.372;2023-08-31T01:47:15;21.63;;;18.40;;
12896;SDS011;6516;35.028;32.372;2023-08-31T01:49:44;23.95;;;18.67;;
12896;SDS011;6516;35.028;32.372;2023-08-31T01:52:12;23.48;;;17.02;;
12896;SDS011;6516;35.028;32.372;2023-08-31T01:54:41;20.85;;;17.30;;
12896;SDS011;6516;35.028;32.372;2023-08-31T01:57:09;23.70;;;17.37;;
12896;SDS011;6516;35.028;32.372;2023-08-31T01:59:37;23.63;;;18.67;;
12896;SDS011;6516;35.028;32.372;2023-08-31T02:02:04;24.63;;;17.65;;
12896;SDS011;6516;35.028;32.372;2023-08-31T02:04:32;25.25;;;18.35;;
12896;SDS011;6516;35.028;32.372;2023-08-31T02:07:00;25.42;;;19.20;;
12896;SDS011;6516;35.028;32.372;2023-08-31T02:09:28;27.07;;;18.47;;
12896;SDS011;6516;35.028;32.372;2023-08-31T02:11:57;24.45;;;17.92;;
12896;SDS011;6516;35.028;32.372;2023-08-31T02:14:26;25.63;;;19.35;;
12896;SDS011;6516;35.028;32.372;2023-08-31T02:16:53;27.17;;;19.27;;
12896;SDS011;6516;35.028;32.372;2023-08-31T02:19:21;22.48;;;17.15;;
12896;SDS011;6516;35.028;32.372;2023-08-31T02:21:49;21.05;;;18.27;;
12896;SDS011;6516;35.028;32.372;2023-08-31T02:24:16;25.90;;;18.60;;
12896;SDS011;6516;35.028;32.372;2023-08-31T02:26:44;25.70;;;18.85;;
12896;SDS011;6516;35.028;32.372;2023-08-31T02:29:13;26.00;;;19.43;;
12896;SDS011;6516;35.028;32.372;2023-08-31T02:31:43;26.95;;;19.27;;
12896;SDS011;6516;35.028;32.372;2023-08-31T02:34:11;21.60;;;17.88;;
12896;SDS011;6516;35.028;32.372;2023-08-31T02:36:38;25.83;;;17.83;;
12896;SDS011;6516;35.028;32.372;2023-08-31T02:39:06;24.42;;;19.27;;
12896;SDS011;6516;35.028;32.372;2023-08-31T02:41:34;24.33;;;19.50;;
12896;SDS011;6516;35.028;32.372;2023-08-31T02:44:02;21.05;;;17.92;;
12896;SDS011;6516;35.028;32.372;2023-08-31T02:46:37;23.83;;;18.70;;
12896;SDS011;6516;35.028;32.372;2023-08-31T02:49:04;25.23;;;18.73;;
12896;SDS011;6516;35.028;32.372;2023-08-31T02:51:32;26.92;;;19.38;;
12896;SDS011;6516;35.028;32.372;2023-08-31T02:54:00;25.83;;;19.17;;
12896;SDS011;6516;35.028;32.372;2023-08-31T02:56:28;25.52;;;19.05;;
12896;SDS011;6516;35.028;32.372;2023-08-31T02:58:56;21.98;;;18.80;;
12896;SDS011;6516;35.028;32.372;2023-08-31T03:01:24;22.45;;;18.70;;
12896;SDS011;6516;35.028;32.372;2023-08-31T03:03:53;25.30;;;19.40;;
12896;SDS011;6516;35.028;32.372;2023-08-31T03:06:21;28.33;;;19.87;;
12896;SDS011;6516;35.028;32.372;2023-08-31T03:08:49;26.58;;;20.77;;
12896;SDS011;6516;35.028;32.372;2023-08-31T03:11:16;26.55;;;20.02;;
12896;SDS011;6516;35.028;32.372;2023-08-31T03:13:44;27.35;;;19.83;;
12896;SDS011;6516;35.028;32.372;2023-08-31T03:16:12;28.42;;;20.40;;
12896;SDS011;6516;35.028;32.372;2023-08-31T03:18:40;27.73;;;20.17;;
12896;SDS011;6516;35.028;32.372;2023-08-31T03:21:09;26.67;;;20.33;;
12896;SDS011;6516;35.028;32.372;2023-08-31T03:23:37;24.52;;;20.45;;
12896;SDS011;6516;35.028;32.372;2023-08-31T03:26:08;25.67;;;21.15;;
12896;SDS011;6516;35.028;32.372;2023-08-31T03:28:36;31.77;;;21.77;;
12896;SDS011;6516;35.028;32.372;2023-08-31T03:31:06;27.23;;;20.90;;
12896;SDS011;6516;35.028;32.372;2023-08-31T03:33:33;26.38;;;20.85;;
12896;SDS011;6516;35.028;32.372;2023-08-31T03:36:01;25.17;;;21.02;;
12896;SDS011;6516;35.028;32.372;2023-08-31T03:38:32;29.33;;;20.73;;
12896;SDS011;6516;35.028;32.372;2023-08-31T03:41:02;28.10;;;21.17;;
12896;SDS011;6516;35.028;32.372;2023-08-31T03:43:30;28.00;;;20.23;;
12896;SDS011;6516;35.028;32.372;2023-08-31T03:45:59;24.20;;;20.65;;
12896;SDS011;6516;35.028;32.372;2023-08-31T03:48:27;24.73;;;20.27;;
12896;SDS011;6516;35.028;32.372;2023-08-31T03:50:55;28.08;;;21.52;;
12896;SDS011;6516;35.028;32.372;2023-08-31T03:53:23;28.88;;;22.02;;
12896;SDS011;6516;35.028;32.372;2023-08-31T03:55:52;26.93;;;20.57;;
12896;SDS011;6516;35.028;32.372;2023-08-31T03:58:20;25.77;;;21.80;;
12896;SDS011;6516;35.028;32.372;2023-08-31T04:00:48;27.38;;;21.40;;
12896;SDS011;6516;35.028;32.372;2023-08-31T04:03:16;26.30;;;21.63;;
12896;SDS011;6516;35.028;32.372;2023-08-31T04:05:44;26.73;;;21.00;;
12896;SDS011;6516;35.028;32.372;2023-08-31T04:08:12;26.73;;;20.43;;
12896;SDS011;6516;35.028;32.372;2023-08-31T04:10:40;28.10;;;22.20;;
12896;SDS011;6516;35.028;32.372;2023-08-31T04:13:09;27.65;;;21.33;;
12896;SDS011;6516;35.028;32.372;2023-08-31T04:15:37;27.90;;;22.02;;
12896;SDS011;6516;35.028;32.372;2023-08-31T04:18:04;25.40;;;20.38;;
12896;SDS011;6516;35.028;32.372;2023-08-31T04:20:32;26.37;;;21.43;;
12896;SDS011;6516;35.028;32.372;2023-08-31T04:23:00;26.63;;;21.02;;
12896;SDS011;6516;35.028;32.372;2023-08-31T04:25:28;25.80;;;21.05;;
12896;SDS011;6516;35.028;32.372;2023-08-31T04:27:57;26.08;;;20.65;;
12896;SDS011;6516;35.028;32.372;2023-08-31T04:30:26;23.35;;;20.85;;
12896;SDS011;6516;35.028;32.372;2023-08-31T04:32:53;25.53;;;20.77;;
12896;SDS011;6516;35.028;32.372;2023-08-31T04:35:21;31.20;;;21.10;;
12896;SDS011;6516;35.028;32.372;2023-08-31T04:37:49;24.23;;;20.95;;
12896;SDS011;6516;35.028;32.372;2023-08-31T04:40:17;28.67;;;19.83;;
12896;SDS011;6516;35.028;32.372;2023-08-31T04:42:45;27.02;;;20.52;;
12896;SDS011;6516;35.028;32.372;2023-08-31T04:45:12;26.23;;;20.30;;
12896;SDS011;6516;35.028;32.372;2023-08-31T04:47:42;27.73;;;19.13;;
12896;SDS011;6516;35.028;32.372;2023-08-31T04:50:10;23.98;;;18.70;;
12896;SDS011;6516;35.028;32.372;2023-08-31T04:52:38;21.08;;;17.80;;
12896;SDS011;6516;35.028;32.372;2023-08-31T04:55:06;24.95;;;16.95;;
12896;SDS011;6516;35.028;32.372;2023-08-31T04:57:36;26.23;;;15.63;;
12896;SDS011;6516;35.028;32.372;2023-08-31T05:00:04;30.80;;;16.30;;
12896;SDS011;6516;35.028;32.372;2023-08-31T05:02:34;21.05;;;13.85;;
12896;SDS011;6516;35.028;32.372;2023-08-31T05:05:04;23.17;;;13.25;;
12896;SDS011;6516;35.028;32.372;2023-08-31T05:07:32;26.85;;;13.48;;
12896;SDS011;6516;35.028;32.372;2023-08-31T05:10:00;20.47;;;11.97;;
12896;SDS011;6516;35.028;32.372;2023-08-31T05:12:28;24.17;;;13.05;;
12896;SDS011;6516;35.028;32.372;2023-08-31T05:14:56;18.30;;;12.00;;
12896;SDS011;6516;35.028;32.372;2023-08-31T05:17:24;21.67;;;12.07;;
12896;SDS011;6516;35.028;32.372;2023-08-31T05:19:51;17.00;;;10.95;;
12896;SDS011;6516;35.028;32.372;2023-08-31T05:22:20;14.07;;;10.33;;
12896;SDS011;6516;35.028;32.372;2023-08-31T05:24:48;21.45;;;11.52;;
12896;SDS011;6516;35.028;32.372;2023-08-31T05:27:16;16.20;;;11.20;;
12896;SDS011;6516;35.028;32.372;2023-08-31T05:29:44;16.50;;;10.55;;
12896;SDS011;6516;35.028;32.372;2023-08-31T05:32:12;17.27;;;10.48;;
12896;SDS011;6516;35.028;32.372;2023-08-31T05:34:39;16.17;;;9.70;;
12896;SDS011;6516;35.028;32.372;2023-08-31T05:37:07;18.63;;;9.90;;
12896;SDS011;6516;35.028;32.372;2023-08-31T05:39:36;16.88;;;9.82;;
12896;SDS011;6516;35.028;32.372;2023-08-31T05:42:04;16.42;;;8.98;;
12896;SDS011;6516;35.028;32.372;2023-08-31T05:44:32;17.20;;;9.73;;
12896;SDS011;6516;35.028;32.372;2023-08-31T05:47:00;13.23;;;8.73;;
12896;SDS011;6516;35.028;32.372;2023-08-31T05:49:28;15.43;;;9.07;;
12896;SDS011;6516;35.028;32.372;2023-08-31T05:51:56;19.27;;;9.38;;
12896;SDS011;6516;35.028;32.372;2023-08-31T05:54:24;16.10;;;9.10;;
12896;SDS011;6516;35.028;32.372;2023-08-31T05:56:54;16.40;;;8.98;;
12896;SDS011;6516;35.028;32.372;2023-08-31T05:59:22;14.43;;;8.10;;
12896;SDS011;6516;35.028;32.372;2023-08-31T06:01:50;16.23;;;8.30;;
12896;SDS011;6516;35.028;32.372;2023-08-31T06:04:17;18.02;;;8.45;;
12896;SDS011;6516;35.028;32.372;2023-08-31T06:06:45;19.67;;;8.00;;
12896;SDS011;6516;35.028;32.372;2023-08-31T06:09:13;18.00;;;7.68;;
12896;SDS011;6516;35.028;32.372;2023-08-31T06:11:41;17.07;;;7.67;;
12896;SDS011;6516;35.028;32.372;2023-08-31T06:14:10;18.98;;;7.72;;
12896;SDS011;6516;35.028;32.372;2023-08-31T06:16:38;15.57;;;7.65;;
12896;SDS011;6516;35.028;32.372;2023-08-31T06:19:06;14.40;;;7.28;;
12896;SDS011;6516;35.028;32.372;2023-08-31T06:21:33;18.98;;;7.20;;
12896;SDS011;6516;35.028;32.372;2023-08-31T06:24:01;13.97;;;6.23;;
12896;SDS011;6516;35.028;32.372;2023-08-31T06:26:31;13.95;;;5.90;;
12896;SDS011;6516;35.028;32.372;2023-08-31T06:28:59;16.33;;;6.43;;
12896;SDS011;6516;35.028;32.372;2023-08-31T06:31:30;15.70;;;6.30;;
12896;SDS011;6516;35.028;32.372;2023-08-31T06:33:57;14.60;;;6.40;;
12896;SDS011;6516;35.028;32.372;2023-08-31T06:36:25;14.63;;;6.70;;
12896;SDS011;6516;35.028;32.372;2023-08-31T06:38:53;15.57;;;6.32;;
12896;SDS011;6516;35.028;32.372;2023-08-31T06:41:21;17.80;;;6.65;;
12896;SDS011;6516;35.028;32.372;2023-08-31T06:43:48;15.65;;;5.90;;
12896;SDS011;6516;35.028;32.372;2023-08-31T06:46:16;13.00;;;6.40;;
12896;SDS011;6516;35.028;32.372;2023-08-31T06:48:45;13.33;;;6.20;;
12896;SDS011;6516;35.028;32.372;2023-08-31T06:51:14;18.88;;;6.90;;
12896;SDS011;6516;35.028;32.372;2023-08-31T06:53:43;12.10;;;6.68;;
12896;SDS011;6516;35.028;32.372;2023-08-31T06:56:11;15.32;;;6.85;;
12896;SDS011;6516;35.028;32.372;2023-08-31T06:58:38;16.58;;;7.00;;
12896;SDS011;6516;35.028;32.372;2023-08-31T07:01:06;18.43;;;7.13;;
12896;SDS011;6516;35.028;32.372;2023-08-31T07:03:34;18.20;;;7.32;;
12896;SDS011;6516;35.028;32.372;2023-08-31T07:06:03;15.43;;;6.60;;
12896;SDS011;6516;35.028;32.372;2023-08-31T07:08:31;14.30;;;6.63;;
12896;SDS011;6516;35.028;32.372;2023-08-31T07:10:59;21.00;;;7.00;;
12896;SDS011;6516;35.028;32.372;2023-08-31T07:13:27;12.43;;;6.60;;
12896;SDS011;6516;35.028;32.372;2023-08-31T07:15:55;19.15;;;7.20;;
12896;SDS011;6516;35.028;32.372;2023-08-31T07:18:23;15.90;;;7.13;;
12896;SDS011;6516;35.028;32.372;2023-08-31T07:20:50;17.10;;;6.95;;
12896;SDS011;6516;35.028;32.372;2023-08-31T07:23:20;15.05;;;6.40;;
12896;SDS011;6516;35.028;32.372;2023-08-31T07:25:47;18.70;;;6.47;;
12896;SDS011;6516;35.028;32.372;2023-08-31T07:28:17;16.60;;;6.28;;
12896;SDS011;6516;35.028;32.372;2023-08-31T07:30:45;15.55;;;6.10;;
12896;SDS011;6516;35.028;32.372;2023-08-31T07:33:13;13.85;;;6.07;;
12896;SDS011;6516;35.028;32.372;2023-08-31T07:35:40;19.85;;;6.57;;
12896;SDS011;6516;35.028;32.372;2023-08-31T07:38:08;14.47;;;6.63;;
12896;SDS011;6516;35.028;32.372;2023-08-31T07:40:37;17.25;;;6.93;;
12896;SDS011;6516;35.028;32.372;2023-08-31T07:43:07;15.38;;;6.53;;
12896;SDS011;6516;35.028;32.372;2023-08-31T07:45:34;16.35;;;6.75;;
12896;SDS011;6516;35.028;32.372;2023-08-31T07:48:03;23.10;;;6.43;;
12896;SDS011;6516;35.028;32.372;2023-08-31T07:50:32;18.97;;;6.60;;
12896;SDS011;6516;35.028;32.372;2023-08-31T07:53:00;18.10;;;6.00;;
12896;SDS011;6516;35.028;32.372;2023-08-31T07:55:29;14.20;;;6.13;;
12896;SDS011;6516;35.028;32.372;2023-08-31T07:57:58;17.60;;;6.18;;
12896;SDS011;6516;35.028;32.372;2023-08-31T08:00:27;15.15;;;5.75;;
12896;SDS011;6516;35.028;32.372;2023-08-31T08:02:55;16.07;;;6.10;;
12896;SDS011;6516;35.028;32.372;2023-08-31T08:05:23;13.27;;;5.90;;
12896;SDS011;6516;35.028;32.372;2023-08-31T08:07:50;19.10;;;7.15;;
12896;SDS011;6516;35.028;32.372;2023-08-31T08:10:18;18.50;;;6.70;;
12896;SDS011;6516;35.028;32.372;2023-08-31T08:12:46;18.38;;;6.80;;
12896;SDS011;6516;35.028;32.372;2023-08-31T08:15:15;18.70;;;6.70;;
12896;SDS011;6516;35.028;32.372;2023-08-31T08:17:43;109.55;;;12.77;;
12896;SDS011;6516;35.028;32.372;2023-08-31T08:20:11;50.03;;;8.73;;
12896;SDS011;6516;35.028;32.372;2023-08-31T08:22:39;22.45;;;7.00;;
12896;SDS011;6516;35.028;32.372;2023-08-31T08:25:07;14.27;;;6.22;;
12896;SDS011;6516;35.028;32.372;2023-08-31T08:27:36;17.17;;;6.30;;
12896;SDS011;6516;35.028;32.372;2023-08-31T08:30:04;14.30;;;6.30;;
12896;SDS011;6516;35.028;32.372;2023-08-31T08:32:34;29.75;;;7.70;;
12896;SDS011;6516;35.028;32.372;2023-08-31T08:35:02;35.28;;;7.22;;
12896;SDS011;6516;35.028;32.372;2023-08-31T08:37:31;72.13;;;11.25;;
12896;SDS011;6516;35.028;32.372;2023-08-31T08:39:59;108.53;;;14.07;;
12896;SDS011;6516;35.028;32.372;2023-08-31T08:42:29;19.67;;;6.90;;
12896;SDS011;6516;35.028;32.372;2023-08-31T08:44:58;18.02;;;6.65;;
12896;SDS011;6516;35.028;32.372;2023-08-31T08:47:26;14.25;;;6.18;;
12896;SDS011;6516;35.028;32.372;2023-08-31T08:49:55;16.45;;;5.35;;
12896;SDS011;6516;35.028;32.372;2023-08-31T08:52:25;20.33;;;6.13;;
12896;SDS011;6516;35.028;32.372;2023-08-31T08:54:53;21.58;;;6.50;;
12896;SDS011;6516;35.028;32.372;2023-08-31T08:57:23;18.38;;;5.82;;
12896;SDS011;6516;35.028;32.372;2023-08-31T08:59:51;15.73;;;5.57;;
12896;SDS011;6516;35.028;32.372;2023-08-31T09:02:19;17.60;;;5.75;;
12896;SDS011;6516;35.028;32.372;2023-08-31T09:04:47;15.43;;;6.00;;
12896;SDS011;6516;35.028;32.372;2023-08-31T09:07:19;17.92;;;5.82;;
12896;SDS011;6516;35.028;32.372;2023-08-31T09:09:48;15.57;;;5.85;;
12896;SDS011;6516;35.028;32.372;2023-08-31T09:12:17;12.27;;;5.22;;
12896;SDS011;6516;35.028;32.372;2023-08-31T09:14:56;18.92;;;5.97;;
12896;SDS011;6516;35.028;32.372;2023-08-31T09:17:25;17.60;;;5.63;;
12896;SDS011;6516;35.028;32.372;2023-08-31T09:19:59;21.90;;;5.32;;
12896;SDS011;6516;35.028;32.372;2023-08-31T09:22:30;16.05;;;5.05;;
12896;SDS011;6516;35.028;32.372;2023-08-31T09:24:59;17.27;;;5.55;;
12896;SDS011;6516;35.028;32.372;2023-08-31T09:27:27;17.75;;;5.50;;
12896;SDS011;6516;35.028;32.372;2023-08-31T09:29:56;99.73;;;12.50;;
12896;SDS011;6516;35.028;32.372;2023-08-31T09:32:25;54.15;;;8.85;;
12896;SDS011;6516;35.028;32.372;2023-08-31T09:34:55;14.57;;;5.30;;
12896;SDS011;6516;35.028;32.372;2023-08-31T09:37:28;18.27;;;6.00;;
12896;SDS011;6516;35.028;32.372;2023-08-31T09:39:57;22.65;;;5.40;;
12896;SDS011;6516;35.028;32.372;2023-08-31T09:42:36;17.47;;;5.70;;
12896;SDS011;6516;35.028;32.372;2023-08-31T09:45:04;71.10;;;11.18;;
12896;SDS011;6516;35.028;32.372;2023-08-31T09:47:33;105.15;;;13.85;;
12896;SDS011;6516;35.028;32.372;2023-08-31T09:50:02;30.23;;;6.97;;
12896;SDS011;6516;35.028;32.372;2023-08-31T09:52:32;16.02;;;5.20;;
12896;SDS011;6516;35.028;32.372;2023-08-31T09:55:01;57.30;;;9.10;;
12896;SDS011;6516;35.028;32.372;2023-08-31T09:57:31;27.52;;;5.85;;
12896;SDS011;6516;35.028;32.372;2023-08-31T10:00:00;19.10;;;5.60;;
12896;SDS011;6516;35.028;32.372;2023-08-31T10:02:28;23.80;;;5.93;;
12896;SDS011;6516;35.028;32.372;2023-08-31T10:04:58;17.42;;;4.93;;
12896;SDS011;6516;35.028;32.372;2023-08-31T10:07:26;11.07;;;4.30;;
12896;SDS011;6516;35.028;32.372;2023-08-31T10:09:56;14.95;;;4.90;;
12896;SDS011;6516;35.028;32.372;2023-08-31T10:12:24;22.38;;;5.15;;
12896;SDS011;6516;35.028;32.372;2023-08-31T10:14:53;17.77;;;4.70;;
12896;SDS011;6516;35.028;32.372;2023-08-31T10:17:22;86.45;;;11.73;;
12896;SDS011;6516;35.028;32.372;2023-08-31T10:19:52;18.93;;;4.73;;
12896;SDS011;6516;35.028;32.372;2023-08-31T10:22:22;36.92;;;6.03;;
12896;SDS011;6516;35.028;32.372;2023-08-31T10:24:59;14.73;;;4.38;;
12896;SDS011;6516;35.028;32.372;2023-08-31T10:27:30;18.77;;;5.30;;
12896;SDS011;6516;35.028;32.372;2023-08-31T10:30:24;14.52;;;4.72;;
12896;SDS011;6516;35.028;32.372;2023-08-31T10:35:50;15.73;;;4.75;;
12896;SDS011;6516;35.028;32.372;2023-08-31T10:38:26;16.60;;;5.10;;
12896;SDS011;6516;35.028;32.372;2023-08-31T10:43:50;14.55;;;4.97;;
12896;SDS011;6516;35.028;32.372;2023-08-31T10:46:26;12.57;;;4.63;;
12896;SDS011;6516;35.028;32.372;2023-08-31T10:48:56;30.92;;;5.65;;
12896;SDS011;6516;35.028;32.372;2023-08-31T10:51:26;33.15;;;5.90;;
12896;SDS011;6516;35.028;32.372;2023-08-31T10:54:05;17.88;;;4.80;;
12896;SDS011;6516;35.028;32.372;2023-08-31T10:56:53;17.83;;;4.90;;
12896;SDS011;6516;35.028;32.372;2023-08-31T10:59:42;17.27;;;5.10;;
12896;SDS011;6516;35.028;32.372;2023-08-31T11:02:28;21.30;;;5.15;;
12896;SDS011;6516;35.028;32.372;2023-08-31T11:05:08;28.92;;;5.90;;
12896;SDS011;6516;35.028;32.372;2023-08-31T11:07:38;28.02;;;5.88;;
12896;SDS011;6516;35.028;32.372;2023-08-31T11:10:13;18.45;;;5.10;;
12896;SDS011;6516;35.028;32.372;2023-08-31T11:12:45;16.27;;;4.87;;
12896;SDS011;6516;35.028;32.372;2023-08-31T11:15:14;14.88;;;5.10;;
12896;SDS011;6516;35.028;32.372;2023-08-31T11:17:44;18.83;;;5.15;;
12896;SDS011;6516;35.028;32.372;2023-08-31T11:20:13;18.63;;;4.97;;
12896;SDS011;6516;35.028;32.372;2023-08-31T11:22:43;20.20;;;5.45;;
12896;SDS011;6516;35.028;32.372;2023-08-31T11:25:15;13.73;;;5.03;;
12896;SDS011;6516;35.028;32.372;2023-08-31T11:27:54;22.13;;;5.55;;
12896;SDS011;6516;35.028;32.372;2023-08-31T11:30:22;18.27;;;5.50;;
12896;SDS011;6516;35.028;32.372;2023-08-31T11:32:51;16.92;;;5.50;;
12896;SDS011;6516;35.028;32.372;2023-08-31T11:35:19;14.00;;;5.30;;
12896;SDS011;6516;35.028;32.372;2023-08-31T11:37:49;41.80;;;6.43;;
12896;SDS011;6516;35.028;32.372;2023-08-31T11:40:18;15.23;;;5.25;;
12896;SDS011;6516;35.028;32.372;2023-08-31T11:42:47;19.98;;;5.43;;
12896;SDS011;6516;35.028;32.372;2023-08-31T11:45:17;15.35;;;5.05;;
12896;SDS011;6516;35.028;32.372;2023-08-31T11:47:46;15.30;;;5.60;;
12896;SDS011;6516;35.028;32.372;2023-08-31T11:50:15;18.33;;;5.40;;
12896;SDS011;6516;35.028;32.372;2023-08-31T11:52:44;16.30;;;5.38;;
12896;SDS011;6516;35.028;32.372;2023-08-31T11:55:12;16.35;;;6.05;;
12896;SDS011;6516;35.028;32.372;2023-08-31T11:57:47;28.40;;;5.78;;
12896;SDS011;6516;35.028;32.372;2023-08-31T12:00:18;17.25;;;5.25;;
12896;SDS011;6516;35.028;32.372;2023-08-31T12:02:53;14.50;;;5.03;;
12896;SDS011;6516;35.028;32.372;2023-08-31T12:05:23;10.82;;;4.70;;
12896;SDS011;6516;35.028;32.372;2023-08-31T12:07:53;18.17;;;5.43;;
12896;SDS011;6516;35.028;32.372;2023-08-31T12:10:23;20.30;;;5.65;;
12896;SDS011;6516;35.028;32.372;2023-08-31T12:12:52;13.10;;;5.05;;
12896;SDS011;6516;35.028;32.372;2023-08-31T12:15:22;18.33;;;5.13;;
12896;SDS011;6516;35.028;32.372;2023-08-31T12:17:50;12.32;;;4.82;;
12896;SDS011;6516;35.028;32.372;2023-08-31T12:20:24;15.32;;;4.82;;
12896;SDS011;6516;35.028;32.372;2023-08-31T12:22:53;14.63;;;4.60;;
12896;SDS011;6516;35.028;32.372;2023-08-31T12:25:20;15.55;;;4.82;;
12896;SDS011;6516;35.028;32.372;2023-08-31T12:27:49;16.70;;;4.87;;
12896;SDS011;6516;35.028;32.372;2023-08-31T12:30:17;14.18;;;4.55;;
12896;SDS011;6516;35.028;32.372;2023-08-31T12:32:46;17.23;;;4.90;;
12896;SDS011;6516;35.028;32.372;2023-08-31T12:35:14;15.18;;;5.25;;
12896;SDS011;6516;35.028;32.372;2023-08-31T12:37:42;14.50;;;4.50;;
12896;SDS011;6516;35.028;32.372;2023-08-31T12:40:10;17.13;;;4.50;;
12896;SDS011;6516;35.028;32.372;2023-08-31T12:42:39;14.77;;;4.50;;
12896;SDS011;6516;35.028;32.372;2023-08-31T12:45:07;13.77;;;4.40;;
12896;SDS011;6516;35.028;32.372;2023-08-31T12:47:36;13.85;;;4.38;;
12896;SDS011;6516;35.028;32.372;2023-08-31T12:50:06;17.00;;;4.20;;
12896;SDS011;6516;35.028;32.372;2023-08-31T12:52:35;13.40;;;4.03;;
12896;SDS011;6516;35.028;32.372;2023-08-31T12:55:09;12.40;;;3.90;;
12896;SDS011;6516;35.028;32.372;2023-08-31T12:57:37;15.82;;;4.32;;
12896;SDS011;6516;35.028;32.372;2023-08-31T13:00:07;14.77;;;3.80;;
12896;SDS011;6516;35.028;32.372;2023-08-31T13:02:38;11.25;;;3.85;;
12896;SDS011;6516;35.028;32.372;2023-08-31T13:05:07;14.27;;;4.03;;
12896;SDS011;6516;35.028;32.372;2023-08-31T13:07:36;15.60;;;3.92;;
12896;SDS011;6516;35.028;32.372;2023-08-31T13:10:05;10.30;;;3.58;;
12896;SDS011;6516;35.028;32.372;2023-08-31T13:12:34;13.38;;;3.70;;
12896;SDS011;6516;35.028;32.372;2023-08-31T13:15:02;11.88;;;4.05;;
12896;SDS011;6516;35.028;32.372;2023-08-31T13:17:33;12.87;;;4.20;;
12896;SDS011;6516;35.028;32.372;2023-08-31T13:20:01;13.18;;;3.70;;
12896;SDS011;6516;35.028;32.372;2023-08-31T13:22:31;12.68;;;3.88;;
12896;SDS011;6516;35.028;32.372;2023-08-31T13:24:59;16.95;;;4.15;;
12896;SDS011;6516;35.028;32.372;2023-08-31T13:27:27;13.27;;;3.78;;
12896;SDS011;6516;35.028;32.372;2023-08-31T13:29:55;13.60;;;3.80;;
12896;SDS011;6516;35.028;32.372;2023-08-31T13:32:23;17.25;;;3.78;;
12896;SDS011;6516;35.028;32.372;2023-08-31T13:34:51;13.15;;;3.85;;
12896;SDS011;6516;35.028;32.372;2023-08-31T13:37:19;10.40;;;3.78;;
12896;SDS011;6516;35.028;32.372;2023-08-31T13:39:49;13.65;;;4.15;;
12896;SDS011;6516;35.028;32.372;2023-08-31T13:42:19;15.63;;;3.97;;
12896;SDS011;6516;35.028;32.372;2023-08-31T13:44:48;15.35;;;3.70;;
12896;SDS011;6516;35.028;32.372;2023-08-31T13:47:15;12.70;;;3.80;;
12896;SDS011;6516;35.028;32.372;2023-08-31T13:49:43;10.55;;;3.53;;
12896;SDS011;6516;35.028;32.372;2023-08-31T13:52:11;10.70;;;3.90;;
12896;SDS011;6516;35.028;32.372;2023-08-31T13:54:39;18.17;;;3.87;;
12896;SDS011;6516;35.028;32.372;2023-08-31T13:57:08;10.98;;;3.65;;
12896;SDS011;6516;35.028;32.372;2023-08-31T13:59:36;9.52;;;3.50;;
12896;SDS011;6516;35.028;32.372;2023-08-31T14:02:03;11.23;;;3.50;;
12896;SDS011;6516;35.028;32.372;2023-08-31T14:04:31;13.98;;;3.95;;
12896;SDS011;6516;35.028;32.372;2023-08-31T14:06:59;10.53;;;3.80;;
12896;SDS011;6516;35.028;32.372;2023-08-31T14:09:27;12.15;;;3.28;;
12896;SDS011;6516;35.028;32.372;2023-08-31T14:11:55;13.52;;;3.65;;
12896;SDS011;6516;35.028;32.372;2023-08-31T14:14:24;12.13;;;3.75;;
12896;SDS011;6516;35.028;32.372;2023-08-31T14:16:52;13.85;;;3.70;;
12896;SDS011;6516;35.028;32.372;2023-08-31T14:19:20;10.70;;;3.23;;
12896;SDS011;6516;35.028;32.372;2023-08-31T14:21:48;11.73;;;2.85;;
12896;SDS011;6516;35.028;32.372;2023-08-31T14:24:17;13.07;;;3.88;;
12896;SDS011;6516;35.028;32.372;2023-08-31T14:26:45;12.93;;;3.10;;
12896;SDS011;6516;35.028;32.372;2023-08-31T14:29:13;17.60;;;3.80;;
12896;SDS011;6516;35.028;32.372;2023-08-31T14:31:43;10.23;;;3.10;;
12896;SDS011;6516;35.028;32.372;2023-08-31T14:34:11;11.93;;;3.45;;
12896;SDS011;6516;35.028;32.372;2023-08-31T14:36:39;13.10;;;2.88;;
12896;SDS011;6516;35.028;32.372;2023-08-31T14:39:07;11.25;;;2.90;;
12896;SDS011;6516;35.028;32.372;2023-08-31T14:41:34;11.23;;;3.15;;
12896;SDS011;6516;35.028;32.372;2023-08-31T14:44:02;12.73;;;3.10;;
12896;SDS011;6516;35.028;32.372;2023-08-31T14:46:31;9.43;;;3.05;;
12896;SDS011;6516;35.028;32.372;2023-08-31T14:49:00;13.98;;;3.40;;